Time;durP1;ratioP1;P1;durP2;ratioP2;P2;SDS_P1;SDS_P2;PMS_P1;PMS_P2;Temp;Humidity;BMP_temperature;BMP_pressure;BME280_temperature;BME280_humidity;BME280_pressure;Samples;Min_cycle;Max_cycle;Signal;HPM_P1;HPM_P2
2021/05/06 00:32:56;;;;;;;2.08;1.00;;;;;;;17.82;33.54;100725.41;4174183;28;20583;-53
2021/05/06 00:34:56;;;;;;;3.33;0.90;;;;;;;17.82;33.47;100721.81;4175248;28;20033;-51
2021/05/06 00:36:56;;;;;;;1.45;1.00;;;;;;;17.80;33.34;100715.72;4185865;28;20036;-53
2021/05/06 00:39:02;;;;;;;1.58;1.15;;;;;;;17.83;33.25;100729.00;4180656;28;20134;-52
2021/05/06 01:01:21;;;;;;;2.70;1.10;;;;;;;17.74;33.25;100714.88;4173866;28;20072;-52
2021/05/06 01:05:39;;;;;;;2.00;1.05;;;;;;;17.64;33.36;100706.53;4171660;28;20029;-51
2021/05/06 01:12:17;;;;;;;1.30;1.20;;;;;;;17.66;33.18;100707.13;4176158;28;20053;-55
2021/05/06 01:14:17;;;;;;;1.45;1.33;;;;;;;17.56;33.59;100699.59;4189130;28;20099;-54
2021/05/06 01:16:18;;;;;;;0.63;0.57;;;;;;;17.59;33.46;100704.59;4174088;28;20029;-55
2021/05/06 01:18:19;;;;;;;1.35;1.00;;;;;;;17.55;33.53;100694.34;4177130;28;20036;-53
2021/05/06 01:20:19;;;;;;;1.52;0.90;;;;;;;17.56;33.40;100687.72;4182761;28;20037;-52
2021/05/06 01:22:20;;;;;;;2.30;0.98;;;;;;;17.53;33.54;100694.63;4174687;28;21213;-53
2021/05/06 01:24:21;;;;;;;0.82;0.70;;;;;;;17.49;33.59;100687.09;4177344;28;20037;-54
2021/05/06 01:28:35;;;;;;;1.45;0.95;;;;;;;17.56;33.43;100679.41;4177609;28;20079;-55
2021/05/06 01:30:44;;;;;;;2.83;1.10;;;;;;;17.40;33.44;100671.06;4178144;28;20028;-55
2021/05/06 01:32:50;;;;;;;1.65;1.10;;;;;;;17.43;33.48;100676.03;4173597;28;20399;-54
2021/05/06 01:35:03;;;;;;;2.05;1.27;;;;;;;17.45;33.60;100684.88;4177697;28;20033;-55
2021/05/06 01:37:14;;;;;;;1.08;0.98;;;;;;;17.51;33.35;100677.47;4173498;28;20108;-54
2021/05/06 01:39:40;;;;;;;1.27;0.80;;;;;;;17.54;33.26;100673.34;4177545;28;20152;-53
2021/05/06 01:41:45;;;;;;;1.95;1.10;;;;;;;17.43;33.43;100683.53;4174096;28;20277;-50
2021/05/06 01:59:44;;;;;;;1.42;1.33;;;;;;;17.33;33.58;100669.66;4169414;28;20850;-50
2021/05/06 02:01:45;;;;;;;1.48;1.38;;;;;;;17.34;33.47;100668.56;4177305;28;20033;-50
2021/05/06 02:03:45;;;;;;;1.58;1.45;;;;;;;17.29;33.46;100669.38;4184962;28;20026;-54
2021/05/06 02:05:45;;;;;;;1.35;1.25;;;;;;;17.28;33.55;100665.75;4174371;28;20036;-53
2021/05/06 02:07:47;;;;;;;1.48;1.00;;;;;;;17.23;33.72;100660.22;4172858;28;20037;-53
2021/05/06 02:09:49;;;;;;;1.42;1.20;;;;;;;17.22;33.60;100660.50;4177046;28;20047;-53
2021/05/06 02:11:49;;;;;;;1.70;1.60;;;;;;;17.20;33.50;100648.88;4175315;28;20037;-52
2021/05/06 02:13:51;;;;;;;2.10;1.80;;;;;;;17.24;33.50;100664.66;4170820;28;20037;-53
2021/05/06 02:16:04;;;;;;;1.48;0.95;;;;;;;17.17;33.53;100653.00;4174051;28;21970;-53
2021/05/06 02:18:05;;;;;;;1.00;0.82;;;;;;;17.24;33.58;100659.13;4165741;28;20033;-52
2021/05/06 02:20:06;;;;;;;1.95;1.10;;;;;;;17.19;33.39;100647.22;4176141;28;20379;-52
2021/05/06 02:22:09;;;;;;;1.85;1.10;;;;;;;17.18;33.61;100649.16;4178216;28;20029;-51
2021/05/06 02:24:10;;;;;;;0.70;0.70;;;;;;;17.19;33.44;100642.50;4172485;28;20059;-55
2021/05/06 02:26:10;;;;;;;1.20;0.82;;;;;;;17.22;33.46;100647.47;4170184;28;20033;-53
2021/05/06 02:28:11;;;;;;;1.40;1.35;;;;;;;17.17;33.48;100652.19;4176425;28;20414;-51
2021/05/06 02:30:12;;;;;;;2.03;1.10;;;;;;;17.14;33.71;100650.78;4182116;28;20498;-52
2021/05/06 02:32:14;;;;;;;1.95;1.15;;;;;;;17.15;33.54;100643.31;4176545;28;20033;-53
2021/05/06 02:34:14;;;;;;;1.00;0.80;;;;;;;17.14;33.44;100642.50;4174401;28;20757;-54
2021/05/06 02:36:14;;;;;;;1.20;1.10;;;;;;;17.09;33.55;100645.25;4172582;28;20029;-54
2021/05/06 02:38:15;;;;;;;1.88;1.02;;;;;;;17.16;33.39;100647.75;4178423;28;20040;-54
2021/05/06 02:40:15;;;;;;;0.65;0.63;;;;;;;17.11;33.43;100649.38;4173359;28;20041;-52
2021/05/06 02:42:16;;;;;;;0.82;0.52;;;;;;;17.10;33.38;100633.06;4176007;28;20085;-53
2021/05/06 02:44:16;;;;;;;1.08;0.50;;;;;;;17.08;33.66;100640.81;4177005;28;20058;-56
2021/05/06 02:46:17;;;;;;;1.42;0.80;;;;;;;17.14;33.49;100645.25;4173894;28;20029;-56
2021/05/06 02:48:17;;;;;;;1.60;1.10;;;;;;;17.11;33.43;100646.63;4175755;28;20173;-53
2021/05/06 02:50:21;;;;;;;0.75;0.75;;;;;;;17.07;33.57;100642.75;4175068;28;20024;-56
2021/05/06 02:52:29;;;;;;;2.40;0.77;;;;;;;17.06;33.43;100641.09;4172792;28;20111;-55
2021/05/06 02:54:36;;;;;;;1.25;0.82;;;;;;;17.07;33.37;100641.94;4176197;28;20526;-52
2021/05/06 02:59:05;;;;;;;1.00;0.95;;;;;;;16.93;33.75;100631.38;4174077;28;20671;-51
2021/05/06 03:03:24;;;;;;;1.55;1.10;;;;;;;16.87;33.35;100601.22;4173517;28;20052;-51
2021/05/06 03:05:29;;;;;;;2.17;1.08;;;;;;;17.01;33.50;100630.03;4180580;28;20029;-54
2021/05/06 03:07:31;;;;;;;2.00;1.90;;;;;;;16.99;33.42;100629.47;4176971;28;20033;-52
2021/05/06 03:11:50;;;;;;;2.10;1.40;;;;;;;16.96;33.58;100620.88;4168893;28;20222;-55
2021/05/06 03:22:59;;;;;;;1.23;1.17;;;;;;;16.89;33.73;100629.44;4171540;28;20099;-50
2021/05/06 03:25:04;;;;;;;1.67;0.82;;;;;;;16.87;33.67;100632.47;4176027;28;20044;-54
2021/05/06 03:27:06;;;;;;;1.05;0.77;;;;;;;16.89;33.53;100632.19;4176260;28;20041;-55
2021/05/06 03:29:11;;;;;;;1.23;1.10;;;;;;;16.84;33.59;100626.66;4172097;28;20055;-51
2021/05/06 03:36:10;;;;;;;1.23;1.20;;;;;;;16.96;33.42;100618.09;4175457;28;20070;-54
2021/05/06 03:42:49;;;;;;;1.60;1.50;;;;;;;16.85;33.52;100612.56;4188971;28;20051;-53
2021/05/06 04:16:48;;;;;;;1.10;1.10;;;;;;;16.56;33.78;100604.66;4173588;28;20698;-52
2021/05/06 04:25:48;;;;;;;1.90;1.17;;;;;;;16.62;33.79;100602.75;4177294;28;20098;-56
2021/05/06 04:28:04;;;;;;;1.70;1.60;;;;;;;16.64;33.69;100608.03;4176246;28;20043;-53
2021/05/06 04:30:23;;;;;;;1.30;1.20;;;;;;;16.61;33.64;100594.75;4183109;28;20037;-55
2021/05/06 04:37:03;;;;;;;0.85;0.85;;;;;;;16.65;33.69;100599.50;4179778;28;20136;-55
2021/05/06 04:39:06;;;;;;;1.20;1.10;;;;;;;16.62;33.72;100605.53;4175295;28;20509;-55
2021/05/06 04:41:25;;;;;;;2.75;1.23;;;;;;;16.56;33.86;100601.91;4188426;28;20025;-51
2021/05/06 04:55:06;;;;;;;2.88;2.67;;;;;;;16.44;33.72;100612.34;4176991;28;20051;-53
2021/05/06 05:03:44;;;;;;;2.95;2.75;;;;;;;16.43;33.86;100599.63;4168322;28;20048;-54
2021/05/06 05:05:45;;;;;;;2.13;1.92;;;;;;;16.46;34.05;100595.50;4178143;28;20052;-54
2021/05/06 05:07:49;;;;;;;2.95;1.83;;;;;;;16.56;33.78;100599.13;4185345;28;20564;-55
2021/05/06 05:10:01;;;;;;;3.00;2.83;;;;;;;16.54;33.90;100603.25;4178017;28;20029;-53
2021/05/06 05:18:47;;;;;;;2.38;2.28;;;;;;;16.55;33.86;100588.34;4176195;28;20057;-55
2021/05/06 05:21:16;;;;;;;1.60;1.17;;;;;;;16.56;33.66;100593.63;4176719;28;20442;-56
2021/05/06 05:23:35;;;;;;;1.25;1.20;;;;;;;16.55;33.80;100585.59;4169911;28;20059;-55
2021/05/06 05:25:41;;;;;;;1.95;1.23;;;;;;;16.57;33.78;100594.44;4172307;28;20114;-54
2021/05/06 05:27:41;;;;;;;1.33;0.80;;;;;;;16.63;33.58;100598.06;4175703;28;20470;-55
2021/05/06 05:29:41;;;;;;;2.00;1.70;;;;;;;16.58;33.85;100596.09;4176511;28;20032;-55
2021/05/06 05:31:42;;;;;;;1.42;1.33;;;;;;;16.58;33.74;100598.88;4175686;28;20549;-57
2021/05/06 05:33:53;;;;;;;0.95;0.88;;;;;;;16.55;33.79;100591.94;4182196;28;20049;-55
2021/05/06 05:36:09;;;;;;;2.83;1.63;;;;;;;16.60;33.65;100593.88;4174776;28;20029;-53
2021/05/06 05:40:40;;;;;;;1.85;0.90;;;;;;;16.54;33.80;100600.50;4174770;28;20048;-55
2021/05/06 05:45:27;;;;;;;0.75;0.75;;;;;;;16.67;33.44;100601.97;4188739;28;20036;-56
2021/05/06 05:56:29;;;;;;;1.10;1.00;;;;;;;16.67;33.54;100602.81;4179911;28;20187;-51
2021/05/06 05:58:29;;;;;;;1.55;1.45;;;;;;;16.72;33.35;100596.47;4175042;28;20048;-55
2021/05/06 06:00:29;;;;;;;1.00;1.00;;;;;;;16.73;33.38;100596.19;4179256;28;20398;-57
2021/05/06 06:02:30;;;;;;;1.75;1.65;;;;;;;16.70;33.50;100591.22;4171580;28;20451;-54
2021/05/06 06:04:31;;;;;;;1.30;1.10;;;;;;;16.73;33.39;100595.38;4176906;28;20045;-56
2021/05/06 06:06:31;;;;;;;0.80;0.80;;;;;;;16.62;33.62;100597.25;4174896;28;20064;-53
2021/05/06 06:08:35;;;;;;;1.00;1.00;;;;;;;16.64;33.78;100597.78;4171792;28;20484;-54
2021/05/06 06:10:36;;;;;;;1.70;0.95;;;;;;;16.70;33.58;100593.16;4166649;28;20080;-55
2021/05/06 06:12:36;;;;;;;0.80;0.80;;;;;;;16.73;33.50;100598.97;4175359;28;20576;-51
2021/05/06 06:16:55;;;;;;;1.40;1.27;;;;;;;16.80;33.49;100600.66;4174722;28;20052;-54
2021/05/06 06:18:58;;;;;;;1.02;0.90;;;;;;;16.83;33.33;100591.81;4175808;28;20032;-55
2021/05/06 06:21:04;;;;;;;0.85;0.63;;;;;;;16.74;33.32;100574.91;4192897;28;20113;-55
2021/05/06 06:23:05;;;;;;;1.00;1.00;;;;;;;16.94;33.31;100593.50;4170380;28;20168;-52
2021/05/06 06:25:06;;;;;;;0.73;0.73;;;;;;;17.00;33.46;100594.34;4178687;28;20071;-56
2021/05/06 06:27:07;;;;;;;0.82;0.73;;;;;;;17.02;33.21;100595.75;4179698;28;20039;-53
2021/05/06 06:29:13;;;;;;;0.85;0.85;;;;;;;17.14;33.33;100602.94;4177353;28;20068;-52
2021/05/06 06:33:15;;;;;;;1.38;0.85;;;;;;;17.23;33.11;100606.84;4174760;28;20064;-53
2021/05/06 06:35:15;;;;;;;1.15;1.00;;;;;;;17.28;33.15;100609.59;4175137;28;20067;-56
2021/05/06 06:37:17;;;;;;;1.38;0.80;;;;;;;17.36;33.11;100611.00;4190506;28;20040;-56
2021/05/06 06:39:17;;;;;;;0.38;0.38;;;;;;;17.34;33.09;100597.44;4174341;28;20075;-55
2021/05/06 06:41:18;;;;;;;0.90;0.90;;;;;;;17.44;33.04;100602.16;4177667;28;20033;-58
2021/05/06 06:43:18;;;;;;;0.77;0.68;;;;;;;17.47;33.12;100601.59;4184649;28;20024;-56
2021/05/06 06:45:20;;;;;;;0.85;0.85;;;;;;;17.56;33.11;100596.38;4172896;28;20028;-57
2021/05/06 06:47:20;;;;;;;1.70;0.52;;;;;;;17.58;33.21;100602.47;4172960;28;20041;-53
2021/05/06 06:49:21;;;;;;;0.95;0.95;;;;;;;17.64;33.23;100609.66;4173906;28;20041;-55
2021/05/06 06:51:21;;;;;;;1.00;0.73;;;;;;;17.66;33.05;100599.16;4174509;28;20029;-54
2021/05/06 06:53:22;;;;;;;0.77;0.70;;;;;;;17.70;33.16;100600.25;4174307;28;20611;-55
2021/05/06 06:55:22;;;;;;;0.98;0.90;;;;;;;17.67;33.17;100594.44;4176977;28;20040;-57
2021/05/06 06:57:22;;;;;;;1.52;0.77;;;;;;;17.73;33.05;100605.25;4174359;28;20399;-56
2021/05/06 06:59:23;;;;;;;0.80;0.80;;;;;;;17.69;33.06;100587.53;4177125;28;20086;-54
2021/05/06 07:01:23;;;;;;;1.55;0.90;;;;;;;17.75;32.95;100593.88;4171142;28;20040;-56
2021/05/06 07:03:24;;;;;;;0.82;0.63;;;;;;;17.82;32.81;100611.88;4176099;28;20025;-56
2021/05/06 07:05:24;;;;;;;0.93;0.88;;;;;;;17.71;33.00;100593.63;4174402;28;20433;-56
2021/05/06 07:07:25;;;;;;;0.98;0.90;;;;;;;17.82;32.92;100603.56;4172978;28;20423;-54
2021/05/06 07:09:25;;;;;;;1.70;1.20;;;;;;;17.87;32.83;100599.16;4172519;28;20029;-52
2021/05/06 07:11:26;;;;;;;0.77;0.63;;;;;;;17.85;32.98;100593.06;4174344;28;20095;-56
2021/05/06 07:13:27;;;;;;;2.25;0.65;;;;;;;17.90;32.68;100595.81;4177454;28;20052;-54
2021/05/06 07:15:29;;;;;;;1.27;0.65;;;;;;;17.92;32.70;100597.22;4179942;28;20538;-54
2021/05/06 07:17:29;;;;;;;1.48;0.68;;;;;;;17.93;32.93;100600.81;4176087;28;20045;-55
2021/05/06 07:19:30;;;;;;;1.20;0.68;;;;;;;17.90;32.78;100590.28;4177771;28;20053;-56
2021/05/06 07:21:31;;;;;;;1.90;0.98;;;;;;;17.98;32.58;100595.25;4178753;28;20617;-56
2021/05/06 07:23:34;;;;;;;2.60;1.00;;;;;;;18.08;32.76;100595.25;4179883;28;20122;-56
2021/05/06 07:25:34;;;;;;;1.38;1.27;;;;;;;18.11;32.44;100600.22;4179074;28;20521;-57
2021/05/06 07:27:35;;;;;;;1.23;1.10;;;;;;;18.06;32.86;100594.72;4178556;28;20033;-59
2021/05/06 07:29:35;;;;;;;1.63;1.52;;;;;;;18.08;33.31;100597.19;4176001;28;20594;-52
2021/05/06 07:31:35;;;;;;;4.72;1.40;;;;;;;18.15;33.47;100587.50;4172765;28;20029;-49
2021/05/06 07:33:36;;;;;;;1.77;1.60;;;;;;;18.28;33.38;100590.78;4177777;28;20063;-53
2021/05/06 07:35:37;;;;;;;5.00;1.70;;;;;;;18.33;33.54;100579.69;4177855;28;20029;-52
2021/05/06 07:37:41;;;;;;;5.65;2.03;;;;;;;18.52;33.41;100594.63;4177301;28;20025;-50
2021/05/06 07:39:41;;;;;;;5.18;1.25;;;;;;;18.60;33.34;100600.66;4175301;28;20843;-60
2021/05/06 07:41:42;;;;;;;8.63;1.27;;;;;;;18.75;33.52;100597.00;4176956;28;20033;-51
2021/05/06 07:43:43;;;;;;;5.22;1.27;;;;;;;18.79;33.49;100592.56;4176779;28;20032;-48
2021/05/06 07:45:44;;;;;;;2.53;1.17;;;;;;;18.88;33.47;100585.31;4179558;28;20557;-50
2021/05/06 07:47:45;;;;;;;1.67;1.25;;;;;;;18.92;33.63;100593.88;4171695;28;20029;-50
2021/05/06 07:49:49;;;;;;;3.58;1.23;;;;;;;18.98;33.67;100582.47;4181002;28;20035;-51
2021/05/06 07:51:50;;;;;;;8.73;1.20;;;;;;;19.06;33.71;100592.13;4175736;28;20126;-51
2021/05/06 07:53:52;;;;;;;2.25;1.10;;;;;;;19.14;33.74;100597.13;4173934;28;20566;-52
2021/05/06 07:55:55;;;;;;;2.60;1.20;;;;;;;19.28;33.62;100600.06;4176766;28;20028;-50
2021/05/06 07:57:56;;;;;;;8.73;1.40;;;;;;;19.33;33.61;100597.25;4180422;28;20459;-50
2021/05/06 07:59:56;;;;;;;3.10;1.83;;;;;;;19.41;33.70;100595.81;4173465;28;20037;-52
2021/05/06 08:01:56;;;;;;;3.60;1.45;;;;;;;19.46;33.59;100595.75;4160355;28;20601;-59
2021/05/06 08:03:57;;;;;;;3.10;1.75;;;;;;;19.49;33.74;100595.19;4174422;28;20029;-56
2021/05/06 08:05:58;;;;;;;5.18;1.52;;;;;;;19.58;33.69;100601.78;4158363;28;20065;-59
2021/05/06 08:07:59;;;;;;;2.88;1.40;;;;;;;19.70;33.64;100600.59;4178182;28;20380;-58
2021/05/06 08:09:59;;;;;;;3.72;1.30;;;;;;;19.70;33.70;100578.38;4174302;28;20156;-60
2021/05/06 08:12:02;;;;;;;7.68;1.60;;;;;;;19.78;33.62;100594.41;4178823;28;20067;-60
2021/05/06 08:14:02;;;;;;;3.58;1.50;;;;;;;19.88;33.56;100591.56;4173975;28;20040;-60
2021/05/06 08:16:03;;;;;;;1.75;1.30;;;;;;;19.97;33.36;100596.50;4177864;28;20032;-59
2021/05/06 08:18:03;;;;;;;5.80;1.92;;;;;;;19.93;33.36;100597.06;4174657;28;20041;-59
2021/05/06 08:20:07;;;;;;;14.88;4.97;;;;;;;20.06;33.19;100592.78;4175226;28;20034;-58
2021/05/06 08:22:08;;;;;;;18.40;10.05;;;;;;;20.00;32.04;100593.94;4175664;28;20024;-58
2021/05/06 08:24:08;;;;;;;15.95;9.70;;;;;;;19.98;31.88;100593.41;4185563;28;20119;-58
2021/05/06 08:26:09;;;;;;;14.50;9.27;;;;;;;19.87;32.13;100583.53;4171346;28;20466;-58
2021/05/06 08:28:09;;;;;;;16.45;9.10;;;;;;;19.73;32.63;100594.47;4174592;28;20057;-49
2021/05/06 08:30:14;;;;;;;22.13;9.02;;;;;;;19.93;32.81;100585.97;4180306;28;20039;-59
2021/05/06 08:32:14;;;;;;;13.30;7.90;;;;;;;20.07;32.68;100588.06;4174194;28;20044;-52
2021/05/06 08:34:14;;;;;;;14.05;8.82;;;;;;;20.21;33.05;100586.22;4178037;28;20431;-52
2021/05/06 08:36:15;;;;;;;15.18;8.35;;;;;;;20.38;32.55;100593.28;4175626;28;20029;-50
2021/05/06 08:38:15;;;;;;;13.18;9.10;;;;;;;20.28;32.67;100558.94;4175084;28;20033;-52
2021/05/06 08:40:16;;;;;;;18.10;8.77;;;;;;;20.49;32.44;100578.13;4170726;28;20045;-54
2021/05/06 08:42:18;;;;;;;17.17;9.65;;;;;;;20.67;32.72;100582.94;4169929;28;20072;-54
2021/05/06 08:44:20;;;;;;;14.52;9.27;;;;;;;20.70;32.62;100586.25;4174125;28;20040;-49
2021/05/06 08:46:21;;;;;;;14.65;9.50;;;;;;;20.72;32.60;100564.53;4177978;28;20499;-50
2021/05/06 08:48:22;;;;;;;17.83;8.20;;;;;;;20.88;32.72;100584.63;4175010;28;20036;-59
2021/05/06 08:50:23;;;;;;;12.00;8.68;;;;;;;20.90;32.93;100583.19;4172637;28;20710;-57
2021/05/06 08:52:23;;;;;;;10.93;7.53;;;;;;;21.01;32.76;100584.72;4173667;28;20033;-59
2021/05/06 08:54:24;;;;;;;12.90;8.30;;;;;;;21.09;32.79;100585.16;4174109;28;20518;-56
2021/05/06 08:56:24;;;;;;;12.23;8.45;;;;;;;21.17;32.86;100587.25;4176548;28;20075;-56
2021/05/06 08:58:25;;;;;;;14.10;8.30;;;;;;;21.24;32.92;100587.72;4172751;28;20028;-57
2021/05/06 09:00:26;;;;;;;11.38;8.45;;;;;;;21.15;32.76;100554.16;4172149;28;20037;-55
2021/05/06 09:02:26;;;;;;;12.70;8.45;;;;;;;21.37;32.61;100586.97;4177479;28;20064;-53
2021/05/06 09:04:28;;;;;;;13.00;8.63;;;;;;;21.37;32.81;100584.19;4175570;28;20040;-53
2021/05/06 09:06:29;;;;;;;11.90;8.52;;;;;;;21.49;32.92;100582.91;4172655;28;20060;-58
2021/05/06 09:08:34;;;;;;;13.50;8.27;;;;;;;21.53;33.00;100583.94;4169503;28;20037;-58
2021/05/06 09:10:39;;;;;;;11.45;7.78;;;;;;;21.55;33.06;100587.28;4181043;28;20157;-59
2021/05/06 09:12:40;;;;;;;13.52;8.70;;;;;;;21.62;32.89;100584.91;4173091;28;20151;-59
2021/05/06 09:14:44;;;;;;;12.68;8.30;;;;;;;21.68;32.95;100591.22;4170941;28;20210;-53
2021/05/06 09:16:45;;;;;;;13.70;8.18;;;;;;;21.70;33.23;100586.16;4174102;28;20124;-59
2021/05/06 09:18:47;;;;;;;13.48;8.93;;;;;;;21.78;32.95;100587.44;4179069;28;20052;-59
2021/05/06 09:20:47;;;;;;;13.60;8.90;;;;;;;21.82;33.21;100586.50;4173128;28;20036;-60
2021/05/06 09:22:58;;;;;;;9.93;7.68;;;;;;;21.85;33.29;100590.66;4172049;28;20029;-60
2021/05/06 09:25:18;;;;;;;;;;;;;;;21.92;33.35;100585.53;4173471;28;20049;-59
2021/05/06 09:27:27;;;;;;;14.77;8.25;;;;;;;22.04;33.24;100597.03;4173339;28;20032;-60
2021/05/06 09:29:48;;;;;;;11.55;8.52;;;;;;;22.04;33.19;100593.41;4173695;28;20286;-58
2021/05/06 09:31:48;;;;;;;11.55;8.52;;;;;;;22.07;33.28;100599.22;4172542;28;20119;-58
2021/05/06 09:33:51;;;;;;;10.48;8.07;;;;;;;22.07;33.21;100590.84;4172164;28;20519;-59
2021/05/06 09:35:52;;;;;;;14.20;8.20;;;;;;;22.11;33.32;100581.88;4169162;28;20148;-58
2021/05/06 09:37:52;;;;;;;24.30;8.15;;;;;;;22.16;33.45;100584.56;4171909;28;20034;-59
2021/05/06 09:40:16;;;;;;;19.60;8.77;;;;;;;22.26;33.35;100592.72;4173277;28;20143;-59
2021/05/06 09:42:34;;;;;;;18.02;7.85;;;;;;;22.24;33.36;100592.19;4172168;28;20719;-59
2021/05/06 09:44:54;;;;;;;14.38;8.15;;;;;;;22.26;33.17;100581.56;4173429;28;20033;-56
2021/05/06 09:46:57;;;;;;;17.38;8.15;;;;;;;22.33;32.86;100587.53;4175279;28;20068;-59
2021/05/06 09:49:09;;;;;;;15.38;8.20;;;;;;;22.34;32.78;100586.41;4173658;28;20123;-55
2021/05/06 09:51:10;;;;;;;15.68;8.02;;;;;;;22.35;32.75;100582.47;4171956;28;20036;-53
2021/05/06 09:53:16;;;;;;;14.85;7.30;;;;;;;22.39;32.52;100582.69;4172045;28;20032;-57
2021/05/06 09:55:16;;;;;;;13.80;6.82;;;;;;;22.44;32.21;100590.97;4174714;28;20020;-55
2021/05/06 09:57:35;;;;;;;12.75;7.68;;;;;;;22.31;32.40;100569.50;4177363;28;20032;-57
2021/05/06 09:59:39;;;;;;;10.18;6.60;;;;;;;22.39;32.27;100589.09;4175214;28;20035;-62
2021/05/06 10:01:41;;;;;;;15.93;6.85;;;;;;;22.41;32.23;100586.00;4173818;28;20041;-57
2021/05/06 10:03:44;;;;;;;10.63;6.25;;;;;;;22.44;32.20;100580.63;4170975;28;20090;-61
2021/05/06 10:05:46;;;;;;;12.55;6.50;;;;;;;22.50;31.96;100588.91;4173840;28;20037;-63
2021/05/06 10:07:54;;;;;;;12.45;6.70;;;;;;;22.57;31.86;100581.75;4168070;28;20699;-53
2021/05/06 10:09:56;;;;;;;17.98;7.07;;;;;;;22.57;32.06;100575.34;4170795;28;20534;-55
2021/05/06 10:12:01;;;;;;;8.88;6.18;;;;;;;22.63;32.26;100580.53;4171432;28;20036;-57
2021/05/06 10:14:01;;;;;;;9.07;6.70;;;;;;;22.67;31.62;100586.31;4171568;28;20036;-59
2021/05/06 10:16:02;;;;;;;11.43;6.07;;;;;;;22.65;31.69;100574.63;4172887;28;20124;-59
2021/05/06 10:18:03;;;;;;;10.50;5.70;;;;;;;22.67;31.79;100574.34;4171723;28;20036;-58
2021/05/06 10:20:04;;;;;;;15.77;7.53;;;;;;;22.48;30.35;100572.47;4165933;28;20391;-55
2021/05/06 10:22:07;;;;;;;13.18;9.43;;;;;;;22.28;29.72;100565.34;4168794;28;20040;-57
2021/05/06 10:24:08;;;;;;;14.70;9.75;;;;;;;22.23;29.88;100568.25;4168469;28;20048;-55
2021/05/06 10:26:09;;;;;;;19.67;9.15;;;;;;;22.16;29.75;100565.84;4173827;28;20029;-55
2021/05/06 10:28:09;;;;;;;17.95;9.63;;;;;;;22.02;29.99;100571.41;4168189;28;20426;-59
2021/05/06 10:30:10;;;;;;;18.17;8.68;;;;;;;22.03;29.43;100575.84;4170140;28;20045;-59
2021/05/06 10:32:13;;;;;;;16.80;9.10;;;;;;;22.09;29.42;100566.25;4164930;28;20040;-48
2021/05/06 10:34:14;;;;;;;13.38;7.70;;;;;;;22.04;29.15;100569.16;4174229;28;20559;-52
2021/05/06 10:36:15;;;;;;;13.68;7.18;;;;;;;21.95;28.50;100561.75;4165227;28;20053;-52
2021/05/06 10:38:15;;;;;;;9.82;6.78;;;;;;;22.03;28.64;100558.31;4170065;28;20033;-48
2021/05/06 10:40:22;;;;;;;10.13;6.18;;;;;;;22.05;28.16;100558.81;4166724;28;20097;-48
2021/05/06 10:42:28;;;;;;;7.55;6.25;;;;;;;22.03;28.26;100552.75;4165815;28;20566;-51
2021/05/06 10:44:36;;;;;;;11.40;5.72;;;;;;;21.94;27.91;100549.81;4163042;28;20041;-49
2021/05/06 10:46:57;;;;;;;7.85;4.93;;;;;;;21.95;27.72;100557.03;4171154;28;20149;-49
2021/05/06 10:49:03;;;;;;;7.82;4.90;;;;;;;21.94;27.29;100549.00;4167667;28;20041;-53
2021/05/06 10:51:45;;;;;;;7.78;4.72;;;;;;;21.91;27.65;100545.66;4168293;28;20180;-61
2021/05/06 10:53:46;;;;;;;6.18;4.38;;;;;;;21.91;27.47;100547.63;4164176;28;20365;-59
2021/05/06 10:55:54;;;;;;;9.60;4.03;;;;;;;21.88;27.26;100545.47;4162753;28;20033;-56
2021/05/06 10:57:55;;;;;;;7.82;3.17;;;;;;;21.77;27.19;100555.16;4168059;28;20605;-59
2021/05/06 10:59:55;;;;;;;4.75;3.22;;;;;;;21.67;26.68;100545.00;4167229;28;20122;-60
2021/05/06 11:01:56;;;;;;;3.72;2.80;;;;;;;21.76;26.35;100542.34;4167488;28;20029;-59
2021/05/06 11:04:05;;;;;;;4.68;2.72;;;;;;;21.72;26.33;100542.94;4167110;28;20037;-60
2021/05/06 11:06:28;;;;;;;10.85;2.80;;;;;;;21.77;26.20;100550.38;4169167;28;20033;-59
2021/05/06 11:08:30;;;;;;;6.72;2.88;;;;;;;21.87;26.20;100546.59;4169433;28;20496;-57
2021/05/06 11:10:42;;;;;;;6.25;2.60;;;;;;;21.83;26.07;100542.78;4166731;28;20040;-57
2021/05/06 11:12:56;;;;;;;4.53;2.65;;;;;;;21.75;26.18;100544.31;4162381;28;20036;-58
2021/05/06 11:14:59;;;;;;;5.70;2.65;;;;;;;21.82;25.69;100546.69;4170915;28;20384;-59
2021/05/06 11:17:19;;;;;;;3.08;2.30;;;;;;;21.78;25.98;100540.91;4162446;28;20069;-52
2021/05/06 11:19:40;;;;;;;3.33;2.28;;;;;;;21.79;25.82;100536.16;4169116;28;20537;-49
2021/05/06 11:21:41;;;;;;;3.13;2.40;;;;;;;21.73;25.98;100539.03;4166049;28;20107;-50
2021/05/06 11:23:51;;;;;;;4.47;2.47;;;;;;;21.62;25.97;100534.78;4162889;28;20052;-49
2021/05/06 11:26:11;;;;;;;4.07;2.33;;;;;;;21.60;25.89;100533.44;4172717;28;20032;-50
2021/05/06 11:28:12;;;;;;;4.65;2.28;;;;;;;21.60;25.57;100531.47;4164462;28;20083;-50
2021/05/06 11:30:42;;;;;;;4.95;2.60;;;;;;;21.59;25.63;100527.03;4164720;28;20469;-50
2021/05/06 11:32:45;;;;;;;5.00;2.22;;;;;;;21.64;25.76;100524.16;4167331;28;20483;-48
2021/05/06 11:34:49;;;;;;;3.47;2.25;;;;;;;21.64;25.58;100526.94;4164036;28;20055;-49
2021/05/06 11:36:50;;;;;;;2.35;2.10;;;;;;;21.68;25.78;100530.75;4169782;28;20525;-59
2021/05/06 11:38:53;;;;;;;7.90;3.92;;;;;;;21.49;27.34;100518.88;4163429;28;20049;-50
2021/05/06 11:40:58;;;;;;;6.10;4.38;;;;;;;21.31;29.05;100509.41;4165249;28;20045;-54
2021/05/06 11:42:58;;;;;;;4.95;3.63;;;;;;;21.23;26.39;100513.69;4168444;28;20041;-52
2021/05/06 11:45:19;;;;;;;3.28;2.97;;;;;;;21.25;26.14;100510.59;4160620;28;20447;-54
2021/05/06 11:47:27;;;;;;;5.32;3.42;;;;;;;21.19;25.00;100512.63;4168507;28;20480;-52
2021/05/06 11:49:27;;;;;;;5.28;3.83;;;;;;;21.09;25.36;100507.25;4167727;28;20068;-57
2021/05/06 11:51:30;;;;;;;4.97;3.28;;;;;;;21.38;25.38;100502.31;4163565;28;20048;-59
2021/05/06 11:53:31;;;;;;;7.55;3.55;;;;;;;21.57;25.24;100486.69;4167930;28;20036;-59
2021/05/06 11:55:39;;;;;;;6.95;3.35;;;;;;;21.83;25.60;100504.59;4160995;28;20046;-59
2021/05/06 11:57:47;;;;;;;7.57;2.80;;;;;;;22.03;26.13;100502.56;4163215;28;20283;-59
2021/05/06 11:59:48;;;;;;;7.93;3.13;;;;;;;22.10;25.83;100505.75;4167350;28;20114;-57
2021/05/06 12:01:48;;;;;;;6.38;2.47;;;;;;;22.18;26.58;100509.78;4168553;28;20174;-55
2021/05/06 12:03:49;;;;;;;4.38;2.10;;;;;;;22.26;26.51;100501.53;4168677;28;20045;-49
2021/05/06 12:05:54;;;;;;;3.72;2.25;;;;;;;22.31;26.72;100500.59;4171641;28;20056;-52
2021/05/06 12:08:04;;;;;;;6.40;2.22;;;;;;;22.37;26.88;100499.34;4173757;28;20025;-49
2021/05/06 12:10:08;;;;;;;6.82;2.35;;;;;;;22.23;27.04;100467.88;4169435;28;20025;-48
2021/05/06 12:12:10;;;;;;;6.78;2.45;;;;;;;22.42;26.90;100493.66;4173274;28;20474;-47
2021/05/06 12:14:10;;;;;;;2.63;2.00;;;;;;;22.49;26.85;100495.19;4173982;28;20025;-48
2021/05/06 12:16:14;;;;;;;4.53;1.77;;;;;;;22.50;27.00;100497.66;4170208;28;20050;-50
2021/05/06 12:18:20;;;;;;;2.65;1.45;;;;;;;22.54;27.07;100500.66;4172712;28;20140;-50
2021/05/06 12:20:20;;;;;;;3.13;1.95;;;;;;;22.51;27.06;100493.75;4173915;28;20051;-52
2021/05/06 12:22:20;;;;;;;2.53;1.77;;;;;;;22.61;27.25;100495.47;4171192;28;20025;-48
2021/05/06 12:24:28;;;;;;;3.33;2.33;;;;;;;22.65;27.50;100490.94;4178855;28;20021;-50
2021/05/06 12:26:29;;;;;;;3.30;2.03;;;;;;;22.74;27.60;100496.59;4167503;28;20037;-59
2021/05/06 12:28:39;;;;;;;5.35;2.00;;;;;;;22.80;27.86;100498.13;4165968;28;20029;-58
2021/05/06 12:30:40;;;;;;;2.75;1.63;;;;;;;22.67;27.25;100494.25;4172762;28;20402;-54
2021/05/06 12:32:46;;;;;;;5.85;1.85;;;;;;;22.83;27.75;100493.91;4171736;28;20030;-57
2021/05/06 12:34:47;;;;;;;1.90;1.50;;;;;;;22.86;28.08;100490.47;4180168;28;20109;-59
2021/05/06 12:36:58;;;;;;;3.00;1.85;;;;;;;22.96;28.12;100491.06;4175279;28;20037;-59
2021/05/06 12:38:59;;;;;;;2.65;1.90;;;;;;;23.00;28.04;100494.03;4167830;28;20091;-53
2021/05/06 12:41:07;;;;;;;2.83;1.80;;;;;;;23.09;27.68;100494.94;4174620;28;20030;-49
2021/05/06 12:43:29;;;;;;;2.42;1.60;;;;;;;23.08;27.84;100496.09;4173106;28;20531;-47
2021/05/06 12:45:31;;;;;;;3.00;1.90;;;;;;;23.11;28.19;100498.25;4175197;28;20116;-49